Time;durP1;ratioP1;P1;durP2;ratioP2;P2;SDS_P1;SDS_P2;PMS_P1;PMS_P2;Temp;Humidity;BMP_temperature;BMP_pressure;BME280_temperature;BME280_humidity;BME280_pressure;Samples;Min_cycle;Max_cycle;Signal;HPM_P1;HPM_P2
2022/09/21 00:01:47;;;;;;;20.30;10.30;;;;;;;9.55;71.87;99076.98;106051;1274;97886;-66
2022/09/21 00:04:15;;;;;;;20.80;10.80;;;;;;;9.54;71.93;99079.17;106015;1274;111716;-66
2022/09/21 00:06:44;;;;;;;20.30;10.00;;;;;;;9.52;71.91;99075.43;106091;1274;97897;-68
2022/09/21 00:09:14;;;;;;;21.00;11.50;;;;;;;9.49;72.01;99074.01;106146;1274;108493;-67
2022/09/21 00:11:42;;;;;;;21.70;10.20;;;;;;;9.50;72.12;99072.49;106120;1274;96349;-68
2022/09/21 00:14:16;;;;;;;22.60;10.00;;;;;;;9.51;72.08;99071.02;106166;1274;97889;-65
2022/09/21 00:16:47;;;;;;;21.30;9.60;;;;;;;9.51;72.07;99070.69;106087;1274;111466;-66
2022/09/21 00:19:16;;;;;;;21.90;9.80;;;;;;;9.50;72.20;99070.92;106074;1274;95263;-65
2022/09/21 00:21:45;;;;;;;22.40;10.40;;;;;;;9.51;72.21;99071.42;106074;1274;108462;-65
2022/09/21 00:24:13;;;;;;;21.00;9.70;;;;;;;9.51;72.13;99071.91;106099;1274;97898;-64
2022/09/21 00:26:41;;;;;;;24.10;10.80;;;;;;;9.50;72.21;99073.76;106158;1273;97979;-64
2022/09/21 00:29:10;;;;;;;20.00;9.60;;;;;;;9.50;72.24;99072.90;106111;1274;111990;-64
2022/09/21 00:31:39;;;;;;;21.10;10.00;;;;;;;9.50;72.24;99076.24;106119;1274;97899;-64
2022/09/21 00:34:11;;;;;;;19.80;9.70;;;;;;;9.49;72.21;99078.63;106073;1274;107021;-65
2022/09/21 00:36:39;;;;;;;19.10;9.50;;;;;;;9.49;72.29;99082.16;106034;1274;96357;-64
2022/09/21 00:39:10;;;;;;;19.50;9.70;;;;;;;9.49;72.35;99085.49;106104;1274;97968;-63
2022/09/21 00:41:38;;;;;;;20.90;10.00;;;;;;;9.49;72.24;99087.66;106027;1274;111334;-62
2022/09/21 00:44:32;;;;;;;23.20;9.80;;;;;;;9.48;72.34;99086.48;106082;1274;95279;-65
2022/09/21 00:47:07;;;;;;;19.30;9.40;;;;;;;9.46;72.43;99087.64;105977;1274;108368;-66
2022/09/21 00:49:44;;;;;;;20.20;10.10;;;;;;;9.46;72.44;99093.89;106012;1274;98058;-67
2022/09/21 00:52:15;;;;;;;21.50;9.60;;;;;;;9.46;72.40;99089.46;106025;1274;98563;-65
2022/09/21 00:55:05;;;;;;;22.40;9.90;;;;;;;9.44;72.37;99092.60;106014;1274;112364;-64
2022/09/21 00:57:34;;;;;;;22.20;10.20;;;;;;;9.42;72.47;99097.66;106062;1274;97970;-64
2022/09/21 01:00:08;;;;;;;21.90;10.40;;;;;;;9.43;72.59;99099.58;106107;1274;108388;-66
2022/09/21 01:02:41;;;;;;;22.10;10.90;;;;;;;9.43;72.47;99097.78;106066;1274;97940;-65
2022/09/21 01:05:12;;;;;;;21.40;10.70;;;;;;;9.42;72.53;99099.43;106060;1274;96334;-63
2022/09/21 01:07:48;;;;;;;31.30;12.40;;;;;;;9.42;72.62;99099.29;106020;1274;112050;-65
2022/09/21 01:10:18;;;;;;;21.90;11.10;;;;;;;9.42;72.59;99098.89;106073;1274;95219;-66
2022/09/21 01:12:58;;;;;;;23.20;11.10;;;;;;;9.42;72.59;99099.48;106080;1274;107750;-66
2022/09/21 01:16:02;;;;;;;23.10;11.30;;;;;;;9.39;72.56;99101.20;105997;1273;97959;-64
2022/09/21 01:18:48;;;;;;;21.40;11.70;;;;;;;9.38;72.77;99104.98;106144;1274;97756;-65
2022/09/21 01:21:45;;;;;;;24.00;11.70;;;;;;;9.38;72.69;99103.78;105991;1274;112114;-64
2022/09/21 01:24:37;;;;;;;24.70;12.60;;;;;;;9.36;72.64;99107.64;106024;1274;96648;-65
2022/09/21 01:27:28;;;;;;;24.00;11.80;;;;;;;9.34;72.82;99100.30;106160;1274;108434;-65
2022/09/21 01:30:10;;;;;;;23.70;11.50;;;;;;;9.35;72.94;99104.34;106167;1274;95282;-64
2022/09/21 01:32:47;;;;;;;21.20;11.40;;;;;;;9.36;72.93;99101.58;106129;1274;97860;-64
2022/09/21 01:35:25;;;;;;;21.30;11.10;;;;;;;9.37;72.93;99098.31;106100;1274;111971;-63
2022/09/21 01:38:08;;;;;;;22.60;11.10;;;;;;;9.37;72.79;99097.47;106010;1274;96310;-64
2022/09/21 01:40:51;;;;;;;27.10;13.00;;;;;;;9.35;72.73;99099.75;105985;1274;107725;-64
2022/09/21 01:43:28;;;;;;;22.50;12.40;;;;;;;9.32;72.88;99095.30;105986;1274;97836;-63
2022/09/21 01:46:03;;;;;;;23.70;11.00;;;;;;;9.31;72.99;99093.81;106158;1274;97953;-64
2022/09/21 01:48:40;;;;;;;21.00;11.20;;;;;;;9.30;72.94;99097.77;106027;1274;111374;-64
2022/09/21 01:51:15;;;;;;;24.60;12.70;;;;;;;9.30;73.07;99097.20;106000;1274;97899;-63
2022/09/21 01:53:55;;;;;;;22.40;11.60;;;;;;;9.30;73.10;99097.03;106038;1274;108297;-65
2022/09/21 01:56:43;;;;;;;23.30;12.40;;;;;;;9.31;73.18;99099.27;106036;1274;97877;-64
2022/09/21 01:59:22;;;;;;;24.50;11.90;;;;;;;9.33;73.11;99100.95;105908;1275;97926;-63
2022/09/21 02:01:58;;;;;;;21.80;11.00;;;;;;;9.33;73.07;99101.13;105980;1274;109960;-63
2022/09/21 02:04:32;;;;;;;24.30;11.00;;;;;;;9.32;73.07;99103.29;105985;1274;97863;-64
2022/09/21 02:07:06;;;;;;;21.10;11.10;;;;;;;9.31;73.05;99104.63;106061;1274;107614;-63
2022/09/21 02:09:36;;;;;;;21.90;11.40;;;;;;;9.28;73.25;99103.73;106124;1274;97951;-63
2022/09/21 02:12:06;;;;;;;23.50;12.90;;;;;;;9.27;73.22;99103.80;106106;1274;98311;-64
2022/09/21 02:14:38;;;;;;;23.70;11.70;;;;;;;9.26;73.32;99104.92;106031;1274;111121;-63
2022/09/21 02:17:55;;;;;;;22.10;12.00;;;;;;;9.24;73.18;99101.51;106130;1274;97958;-67
2022/09/21 02:20:39;;;;;;;22.20;11.20;;;;;;;9.22;73.25;99102.87;106099;1274;108535;-65
2022/09/21 02:23:24;;;;;;;23.00;12.20;;;;;;;9.21;73.24;99104.38;106141;1274;97995;-66
2022/09/21 02:26:02;;;;;;;25.90;12.40;;;;;;;9.21;73.36;99104.21;106028;1274;98574;-67
2022/09/21 02:28:52;;;;;;;23.10;11.80;;;;;;;9.21;73.44;99105.57;106116;1274;112012;-66
2022/09/21 02:31:45;;;;;;;23.80;12.60;;;;;;;9.21;73.50;99103.83;106204;1274;97966;-65
2022/09/21 02:34:16;;;;;;;22.40;11.50;;;;;;;9.22;73.48;99106.23;106134;1274;108243;-64
2022/09/21 02:36:57;;;;;;;23.50;11.90;;;;;;;9.23;73.48;99107.78;106145;1274;97960;-65
2022/09/21 02:39:44;;;;;;;24.50;12.60;;;;;;;9.22;73.58;99109.77;106193;1274;97958;-64
2022/09/21 02:42:30;;;;;;;36.80;14.40;;;;;;;9.23;73.58;99111.69;106145;1274;112080;-64
2022/09/21 02:45:20;;;;;;;25.20;13.70;;;;;;;9.21;73.53;99113.73;105993;1274;95615;-65
2022/09/21 02:47:50;;;;;;;24.20;13.20;;;;;;;9.22;73.66;99115.28;106100;1274;108338;-63
2022/09/21 02:50:41;;;;;;;24.00;12.70;;;;;;;9.23;73.69;99117.65;106051;1274;97884;-64
2022/09/21 02:53:17;;;;;;;22.60;11.70;;;;;;;9.25;73.72;99117.55;106157;1274;97856;-64
2022/09/21 02:55:51;;;;;;;25.90;13.50;;;;;;;9.25;73.66;99121.61;106038;1274;110566;-62
2022/09/21 02:58:43;;;;;;;22.10;12.20;;;;;;;9.24;73.70;99116.53;106076;1274;97902;-62
2022/09/21 03:01:16;;;;;;;20.70;11.60;;;;;;;9.23;73.71;99120.86;106072;1274;107839;-66
2022/09/21 03:03:44;;;;;;;24.50;12.90;;;;;;;9.22;73.74;99120.55;106057;1274;97963;-64
2022/09/21 03:06:21;;;;;;;22.10;12.40;;;;;;;9.22;73.61;99121.47;106010;1274;97783;-65
2022/09/21 03:08:53;;;;;;;22.30;12.50;;;;;;;9.22;73.70;99125.88;106013;1274;110397;-65
2022/09/21 03:11:21;;;;;;;24.30;12.60;;;;;;;9.22;73.68;99123.41;106074;1274;97886;-65
2022/09/21 03:13:49;;;;;;;25.20;12.70;;;;;;;9.21;73.77;99122.61;105981;1274;108795;-63
2022/09/21 03:16:24;;;;;;;24.90;12.70;;;;;;;9.19;73.67;99128.17;106080;1274;96409;-64
2022/09/21 03:18:52;;;;;;;23.30;12.80;;;;;;;9.18;73.75;99128.06;106127;1274;97852;-66
2022/09/21 03:21:20;;;;;;;22.80;12.10;;;;;;;9.17;73.90;99123.59;106125;1274;111831;-66
2022/09/21 03:23:51;;;;;;;21.60;11.60;;;;;;;9.14;73.83;99124.11;106138;1274;97899;-66
2022/09/21 03:26:24;;;;;;;22.20;11.90;;;;;;;9.12;73.92;99122.69;106121;1274;108492;-64
2022/09/21 03:28:56;;;;;;;21.50;11.60;;;;;;;9.12;74.04;99122.83;105967;1274;98202;-66
2022/09/21 03:31:24;;;;;;;22.00;12.20;;;;;;;9.14;74.00;99129.08;106060;1274;97869;-68
2022/09/21 03:33:59;;;;;;;25.10;13.20;;;;;;;9.15;74.03;99126.55;106065;1276;111857;-67
2022/09/21 03:36:27;;;;;;;23.50;12.70;;;;;;;9.16;74.09;99126.46;106088;1274;95198;-68
2022/09/21 03:38:55;;;;;;;24.40;13.50;;;;;;;9.17;74.00;99127.29;106128;1274;108370;-64
2022/09/21 03:41:26;;;;;;;26.20;13.80;;;;;;;9.16;74.05;99123.96;106173;1274;97996;-66
2022/09/21 03:43:54;;;;;;;23.70;12.90;;;;;;;9.17;74.12;99125.71;106163;1274;96833;-65
2022/09/21 03:46:23;;;;;;;26.60;13.70;;;;;;;9.16;74.08;99126.66;106196;1274;112080;-65
2022/09/21 03:48:53;;;;;;;24.40;13.70;;;;;;;9.15;74.20;99127.27;106110;1274;95204;-65
2022/09/21 03:51:23;;;;;;;23.80;13.00;;;;;;;9.16;74.26;99130.58;106102;1274;108364;-65
2022/09/21 03:53:51;;;;;;;23.10;13.40;;;;;;;9.16;74.19;99129.67;105730;1274;526288;-64
2022/09/21 03:56:24;;;;;;;25.10;13.70;;;;;;;9.16;74.11;99131.26;105994;1274;97890;-64
2022/09/21 03:58:52;;;;;;;24.80;13.70;;;;;;;9.12;74.12;99129.90;106066;1274;111254;-64
2022/09/21 04:01:20;;;;;;;24.90;13.70;;;;;;;9.10;74.11;99133.20;106051;1274;97864;-64
2022/09/21 04:03:48;;;;;;;23.70;13.70;;;;;;;9.09;74.18;99134.17;106026;1274;108338;-64
2022/09/21 04:06:16;;;;;;;25.80;14.60;;;;;;;9.08;74.16;99134.08;105953;1274;96289;-66
2022/09/21 04:08:44;;;;;;;25.70;12.90;;;;;;;9.06;74.27;99134.67;106085;1274;98078;-65
2022/09/21 04:11:14;;;;;;;25.30;13.70;;;;;;;9.07;74.31;99134.51;106138;1274;112278;-65
2022/09/21 04:13:42;;;;;;;26.70;13.70;;;;;;;9.06;74.26;99137.01;106066;1274;97893;-62
2022/09/21 04:16:10;;;;;;;23.30;13.20;;;;;;;9.06;74.41;99139.30;106040;1274;108284;-64
2022/09/21 04:18:38;;;;;;;24.50;13.00;;;;;;;9.06;74.34;99140.37;106053;1274;97972;-66
2022/09/21 04:21:06;;;;;;;21.70;11.80;;;;;;;9.08;74.48;99142.88;106042;1274;97763;-65
2022/09/21 04:23:34;;;;;;;22.30;12.00;;;;;;;9.09;74.46;99143.02;106067;1274;112113;-65
2022/09/21 04:26:02;;;;;;;24.00;13.00;;;;;;;9.10;74.37;99143.34;106044;1274;97893;-66
2022/09/21 04:28:31;;;;;;;25.50;14.10;;;;;;;9.09;74.39;99145.64;106094;1274;108392;-65
2022/09/21 04:30:59;;;;;;;24.10;13.40;;;;;;;9.08;74.38;99144.30;106106;1274;96407;-65
2022/09/21 04:33:28;;;;;;;24.50;13.50;;;;;;;9.08;74.29;99142.40;106160;1274;97959;-64
2022/09/21 04:35:56;;;;;;;25.60;13.40;;;;;;;9.07;74.35;99144.59;105962;1274;111897;-62
2022/09/21 04:38:24;;;;;;;26.00;13.10;;;;;;;9.05;74.36;99145.73;106105;1274;97718;-62
2022/09/21 04:40:57;;;;;;;23.60;12.70;;;;;;;9.04;74.53;99144.42;106106;1274;108186;-64
2022/09/21 04:43:25;;;;;;;22.70;12.50;;;;;;;9.04;74.63;99144.70;106148;1274;95448;-64
2022/09/21 04:45:53;;;;;;;23.30;13.20;;;;;;;9.05;74.52;99146.46;106049;1274;97752;-64
2022/09/21 04:48:21;;;;;;;28.20;13.60;;;;;;;9.05;74.53;99150.88;106114;1274;112430;-65
2022/09/21 04:50:50;;;;;;;23.10;12.70;;;;;;;9.05;74.60;99156.91;106157;1274;98146;-66
2022/09/21 04:53:18;;;;;;;23.20;13.20;;;;;;;9.05;74.58;99159.36;106187;1274;108400;-65
2022/09/21 04:55:47;;;;;;;22.90;13.20;;;;;;;9.05;74.70;99166.77;106119;1274;97938;-64
2022/09/21 04:58:15;;;;;;;22.80;12.30;;;;;;;9.06;74.73;99165.14;106012;1274;97959;-64
2022/09/21 05:00:42;;;;;;;21.00;11.80;;;;;;;9.07;74.67;99166.12;106180;1274;111978;-65
2022/09/21 05:03:10;;;;;;;19.70;10.50;;;;;;;9.07;74.77;99167.68;106160;1274;97972;-63
2022/09/21 05:05:50;;;;;;;21.50;11.80;;;;;;;9.08;74.69;99168.02;106095;1274;108268;-65
2022/09/21 05:11:15;;;;;;;22.50;12.70;;;;;;;9.07;74.76;99169.17;106068;1274;99065;-65
2022/09/21 05:13:44;;;;;;;27.40;14.50;;;;;;;9.06;74.67;99170.61;107181;1273;111371;-64
2022/09/21 05:16:16;;;;;;;23.10;13.10;;;;;;;9.05;74.61;99173.85;107301;1273;97890;-63
2022/09/21 05:18:46;;;;;;;25.30;13.70;;;;;;;9.04;74.70;99176.63;106051;1273;107798;-65
2022/09/21 05:21:15;;;;;;;24.00;12.40;;;;;;;9.01;74.66;99178.73;106043;1274;95295;-66
2022/09/21 05:23:42;;;;;;;23.90;12.40;;;;;;;9.00;74.80;99180.40;105948;1274;97583;-66
2022/09/21 05:26:10;;;;;;;21.30;12.40;;;;;;;8.99;74.77;99183.63;106016;1274;112166;-65
2022/09/21 05:28:40;;;;;;;23.60;13.30;;;;;;;9.00;74.78;99188.02;106003;1274;95366;-67
2022/09/21 05:31:26;;;;;;;22.00;12.50;;;;;;;8.99;74.93;99183.08;105912;1274;108408;-64
2022/09/21 05:34:02;;;;;;;22.50;13.00;;;;;;;9.01;74.94;99187.57;106520;1274;97978;-67
2022/09/21 05:36:40;;;;;;;22.80;12.80;;;;;;;9.02;74.95;99192.11;106752;1274;97894;-63
2022/09/21 05:39:10;;;;;;;24.10;12.60;;;;;;;9.02;74.94;99194.25;105957;1274;112506;-66
2022/09/21 05:41:39;;;;;;;23.80;12.40;;;;;;;9.01;74.85;99195.16;106029;1274;97873;-66
2022/09/21 05:44:14;;;;;;;22.80;13.40;;;;;;;9.00;74.99;99194.16;106031;1274;107742;-66
2022/09/21 05:46:48;;;;;;;27.80;14.30;;;;;;;9.03;75.02;99197.39;105981;1274;97973;-66
2022/09/21 05:49:38;;;;;;;23.60;13.30;;;;;;;9.03;75.06;99198.95;105991;1274;97903;-65
2022/09/21 05:52:19;;;;;;;25.10;13.00;;;;;;;9.03;75.12;99198.38;105980;1274;111997;-66
2022/09/21 05:55:19;;;;;;;25.00;13.40;;;;;;;9.05;75.12;99199.20;106023;1274;97813;-64
2022/09/21 05:58:18;;;;;;;26.40;14.60;;;;;;;9.05;75.13;99196.85;105975;1274;108397;-64
2022/09/21 06:01:05;;;;;;;25.40;13.50;;;;;;;9.04;75.20;99195.54;105999;1275;95206;-64
2022/09/21 06:03:38;;;;;;;23.20;12.10;;;;;;;9.04;75.23;99197.66;105986;1274;97971;-67
2022/09/21 06:06:08;;;;;;;22.10;13.00;;;;;;;9.04;75.20;99199.04;106013;1275;111383;-67
2022/09/21 06:08:36;;;;;;;27.20;14.20;;;;;;;9.04;75.16;99204.71;106174;1274;97918;-66
2022/09/21 06:11:06;;;;;;;23.70;12.30;;;;;;;9.05;75.16;99205.86;106053;1274;108393;-67
2022/09/21 06:13:36;;;;;;;26.20;13.20;;;;;;;9.05;75.27;99204.63;105999;1274;97988;-64
2022/09/21 06:16:07;;;;;;;25.10;13.40;;;;;;;9.05;75.24;99211.89;106012;1274;97767;-64
2022/09/21 06:18:41;;;;;;;25.20;12.70;;;;;;;9.06;75.22;99212.19;106085;1274;112044;-65
2022/09/21 06:21:09;;;;;;;26.10;13.80;;;;;;;9.07;75.26;99214.23;106142;1274;97867;-65
2022/09/21 06:23:38;;;;;;;26.70;14.00;;;;;;;9.08;75.28;99217.19;106121;1274;108316;-65
2022/09/21 06:26:06;;;;;;;24.60;13.70;;;;;;;9.08;75.21;99215.45;106119;1274;97990;-64
2022/09/21 06:28:35;;;;;;;25.10;12.80;;;;;;;9.08;75.18;99216.14;106060;1274;97846;-65
2022/09/21 06:31:02;;;;;;;25.00;12.30;;;;;;;9.10;75.32;99217.06;105985;1274;112098;-64
2022/09/21 06:33:34;;;;;;;29.60;13.80;;;;;;;9.13;75.25;99219.38;106000;1274;95386;-63
2022/09/21 06:36:04;;;;;;;26.20;12.20;;;;;;;9.15;75.34;99219.08;106014;1275;108444;-64
2022/09/21 06:38:35;;;;;;;26.30;13.60;;;;;;;9.17;75.38;99216.47;106147;1274;98005;-65
2022/09/21 06:41:04;;;;;;;24.60;12.60;;;;;;;9.19;75.43;99220.59;106173;1274;97887;-64
2022/09/21 06:43:33;;;;;;;22.70;12.20;;;;;;;9.21;75.45;99222.56;106126;1274;112006;-65
2022/09/21 06:46:04;;;;;;;23.00;12.70;;;;;;;9.22;75.42;99220.35;106011;1274;97890;-64
2022/09/21 06:48:34;;;;;;;21.20;10.70;;;;;;;9.23;75.43;99221.70;106054;1274;108399;-64
2022/09/21 06:51:05;;;;;;;23.60;12.30;;;;;;;9.25;75.51;99223.75;105991;1274;97987;-64
2022/09/21 06:53:34;;;;;;;23.00;12.20;;;;;;;9.28;75.45;99224.59;106046;1274;95368;-66
2022/09/21 06:56:08;;;;;;;24.00;12.00;;;;;;;9.31;75.50;99227.23;106050;1274;112249;-66
2022/09/21 06:58:37;;;;;;;24.40;12.80;;;;;;;9.33;75.58;99229.96;106152;1274;97999;-67
2022/09/21 07:01:10;;;;;;;21.50;10.00;;;;;;;9.37;75.53;99232.89;106023;1274;108126;-67
2022/09/21 07:03:40;;;;;;;25.70;13.00;;;;;;;9.38;75.56;99234.03;106048;1274;95201;-65
2022/09/21 07:06:10;;;;;;;22.50;12.20;;;;;;;9.43;75.46;99234.09;106137;1274;95181;-63
2022/09/21 07:08:39;;;;;;;22.80;12.10;;;;;;;9.46;75.45;99237.08;106125;1274;111537;-65
2022/09/21 07:11:28;;;;;;;23.00;12.90;;;;;;;9.47;75.56;99236.09;106109;1274;95287;-63
2022/09/21 07:13:57;;;;;;;25.70;13.00;;;;;;;9.50;75.55;99240.52;106084;1274;108799;-62
2022/09/21 07:16:26;;;;;;;24.60;12.50;;;;;;;9.52;75.61;99237.53;106103;1274;95182;-64
2022/09/21 07:18:56;;;;;;;23.80;13.20;;;;;;;9.56;75.68;99235.36;106063;1274;95183;-65
2022/09/21 07:21:40;;;;;;;24.90;13.30;;;;;;;9.60;75.78;99234.20;106089;1274;111886;-63
2022/09/21 07:24:09;;;;;;;23.50;12.40;;;;;;;9.62;75.67;99239.70;106010;1274;97956;-64
2022/09/21 07:26:40;;;;;;;25.20;14.20;;;;;;;9.64;75.78;99239.78;105970;1274;108366;-63
2022/09/21 07:29:10;;;;;;;25.70;13.70;;;;;;;9.68;75.68;99236.70;105962;1274;95354;-64
2022/09/21 07:31:38;;;;;;;25.00;13.80;;;;;;;9.69;75.71;99239.29;106002;1274;97937;-66
2022/09/21 07:34:06;;;;;;;24.10;13.20;;;;;;;9.72;75.84;99240.02;105987;1275;112030;-64
2022/09/21 07:36:35;;;;;;;22.40;12.90;;;;;;;9.73;75.79;99239.00;105964;1274;97952;-64
2022/09/21 07:39:03;;;;;;;24.90;13.80;;;;;;;9.75;75.79;99244.74;105998;1274;108240;-64
2022/09/21 07:41:32;;;;;;;26.00;12.80;;;;;;;9.76;75.81;99243.23;105983;1274;97906;-65
2022/09/21 07:44:02;;;;;;;26.20;13.30;;;;;;;9.77;75.74;99246.05;106009;1274;97748;-64
2022/09/21 07:46:32;;;;;;;25.30;13.00;;;;;;;9.76;75.71;99245.55;105974;1274;111982;-64
2022/09/21 07:49:00;;;;;;;24.50;12.50;;;;;;;9.75;75.75;99246.65;105986;1274;97871;-65
2022/09/21 07:51:29;;;;;;;24.00;12.30;;;;;;;9.74;75.78;99247.08;106057;1274;108360;-64
2022/09/21 07:53:58;;;;;;;23.30;12.50;;;;;;;9.76;75.87;99243.96;105983;1276;96409;-65
2022/09/21 07:56:27;;;;;;;26.00;12.50;;;;;;;9.86;75.77;99244.70;106013;1274;97858;-65
2022/09/21 07:59:06;;;;;;;22.00;11.80;;;;;;;9.90;75.79;99243.04;106068;1274;111955;-65
2022/09/21 08:01:39;;;;;;;23.40;11.90;;;;;;;9.93;75.96;99241.02;106151;1274;97979;-65
2022/09/21 08:04:10;;;;;;;22.40;12.30;;;;;;;10.03;76.10;99246.25;106054;1274;107710;-65
2022/09/21 08:06:39;;;;;;;22.40;11.90;;;;;;;10.10;76.01;99244.70;106090;1275;95193;-66
2022/09/21 08:09:09;;;;;;;23.80;12.50;;;;;;;10.17;75.94;99250.30;106114;1274;95323;-67
2022/09/21 08:11:42;;;;;;;21.80;11.00;;;;;;;10.19;75.94;99252.06;106127;1274;111946;-66
2022/09/21 08:14:18;;;;;;;20.50;10.50;;;;;;;10.20;75.96;99245.07;106132;1274;95375;-65
2022/09/21 08:16:54;;;;;;;20.30;10.60;;;;;;;10.21;76.06;99248.37;106092;1274;108467;-65
2022/09/21 08:19:25;;;;;;;22.20;10.50;;;;;;;10.21;76.00;99254.73;106020;1274;98435;-65
2022/09/21 08:21:54;;;;;;;21.50;10.80;;;;;;;10.21;75.96;99262.77;106012;1274;97858;-66
2022/09/21 08:24:25;;;;;;;21.30;10.60;;;;;;;10.21;76.04;99260.09;106076;1274;111589;-65
2022/09/21 08:26:56;;;;;;;22.30;11.50;;;;;;;10.26;76.06;99266.48;106111;1274;97940;-65
2022/09/21 08:29:26;;;;;;;24.80;11.50;;;;;;;10.32;75.94;99265.38;106117;1274;108451;-63
2022/09/21 08:31:55;;;;;;;21.80;11.50;;;;;;;10.38;75.93;99268.66;106128;1274;95358;-65
2022/09/21 08:34:25;;;;;;;20.70;10.80;;;;;;;10.43;75.95;99271.73;106124;1274;98554;-66
2022/09/21 08:36:53;;;;;;;20.90;10.70;;;;;;;10.43;75.94;99278.28;105998;1276;111879;-65
2022/09/21 08:39:23;;;;;;;20.50;10.90;;;;;;;10.42;76.02;99279.40;106011;1274;97982;-66
2022/09/21 08:42:13;;;;;;;19.70;10.20;;;;;;;10.42;76.06;99285.25;106003;1274;108325;-65
2022/09/21 08:44:52;;;;;;;24.00;12.00;;;;;;;10.41;75.97;99282.85;105972;1274;95298;-65
2022/09/21 08:47:53;;;;;;;21.80;10.90;;;;;;;10.38;76.04;99282.16;105983;1274;98078;-65
2022/09/21 08:50:32;;;;;;;22.70;12.00;;;;;;;10.42;75.99;99284.57;106101;1274;111825;-65
2022/09/21 08:53:11;;;;;;;22.70;11.80;;;;;;;10.45;76.02;99281.90;106094;1272;97724;-65
2022/09/21 08:55:40;;;;;;;22.00;11.30;;;;;;;10.48;76.01;99276.36;106028;1274;108205;-66
2022/09/21 08:58:26;;;;;;;23.80;11.30;;;;;;;10.50;76.09;99278.55;106123;1274;95300;-67
2022/09/21 09:01:19;;;;;;;24.90;12.40;;;;;;;10.54;76.10;99278.65;106129;1275;97988;-64
2022/09/21 09:04:13;;;;;;;23.10;11.00;;;;;;;10.57;76.10;99280.52;106148;1275;112124;-65
2022/09/21 09:06:42;;;;;;;22.10;11.50;;;;;;;10.56;76.09;99282.23;106051;1276;97957;-64
2022/09/21 09:09:36;;;;;;;23.30;11.60;;;;;;;10.58;76.22;99277.83;106151;1274;108322;-66
2022/09/21 09:12:27;;;;;;;22.40;11.90;;;;;;;10.65;76.15;99277.70;105987;1274;96988;-63
2022/09/21 09:15:11;;;;;;;21.70;10.80;;;;;;;10.67;75.97;99277.34;106082;1275;97985;-63
2022/09/21 09:17:45;;;;;;;21.30;11.30;;;;;;;10.67;76.02;99275.77;106038;1274;111542;-66
2022/09/21 09:20:29;;;;;;;23.00;12.00;;;;;;;10.68;76.04;99275.91;106014;1274;97895;-65
2022/09/21 09:23:25;;;;;;;21.70;11.60;;;;;;;10.68;76.10;99273.39;106085;1274;108203;-65
2022/09/21 09:26:27;;;;;;;22.60;11.30;;;;;;;10.73;76.12;99275.75;106013;1274;97880;-66
2022/09/21 09:29:06;;;;;;;23.10;12.30;;;;;;;10.79;76.22;99273.52;105989;1274;95301;-66
2022/09/21 09:31:36;;;;;;;23.30;11.90;;;;;;;10.89;76.13;99274.29;106099;1274;111454;-65
2022/09/21 09:34:15;;;;;;;22.30;11.60;;;;;;;11.05;76.19;99269.73;106059;1274;98019;-66
2022/09/21 09:36:52;;;;;;;21.70;10.80;;;;;;;11.21;76.13;99270.16;106030;1274;107630;-66
2022/09/21 09:39:30;;;;;;;19.90;10.00;;;;;;;11.49;76.08;99271.91;106018;1274;98021;-65
2022/09/21 09:42:00;;;;;;;18.60;9.90;;;;;;;11.57;76.07;99273.14;106026;1274;95311;-66
2022/09/21 09:45:20;;;;;;;20.40;8.90;;;;;;;11.58;76.10;99269.83;106080;1275;112059;-67
2022/09/21 09:48:17;;;;;;;;;;;;;;;11.59;75.90;99271.55;106042;1276;95359;-69
2022/09/21 09:50:45;;;;;;;19.60;9.40;;;;;;;11.56;76.09;99266.77;106017;1274;106517;-67
2022/09/21 09:53:25;;;;;;;18.40;8.50;;;;;;;11.60;75.93;99263.70;105970;1274;95389;-69
2022/09/21 09:55:57;;;;;;;23.40;8.90;;;;;;;11.63;76.06;99265.02;105998;1275;97753;-66
2022/09/21 09:58:47;;;;;;;20.20;9.30;;;;;;;11.69;75.90;99262.13;106015;1275;111575;-67
2022/09/21 10:01:36;;;;;;;19.50;8.30;;;;;;;11.74;75.90;99262.66;106089;1274;98002;-65
2022/09/21 10:04:10;;;;;;;21.40;8.80;;;;;;;11.85;75.81;99258.78;106104;1275;107755;-64
2022/09/21 10:06:40;;;;;;;18.70;8.70;;;;;;;11.89;75.74;99256.21;106040;1274;97953;-66
2022/09/21 10:09:26;;;;;;;17.30;7.50;;;;;;;11.93;75.65;99254.31;106010;1275;95267;-67
2022/09/21 10:11:59;;;;;;;17.00;7.70;;;;;;;12.00;75.84;99255.25;105978;1274;111372;-64
2022/09/21 10:14:34;;;;;;;20.10;8.10;;;;;;;12.07;75.84;99253.14;106113;1274;97965;-66
2022/09/21 10:17:07;;;;;;;17.10;7.90;;;;;;;12.20;76.23;99251.60;106113;1274;107557;-66
2022/09/21 10:19:37;;;;;;;13.00;6.10;;;;;;;12.38;76.01;99247.35;106091;1274;97895;-65
2022/09/21 10:22:15;;;;;;;13.80;6.30;;;;;;;12.49;75.90;99249.90;106061;1275;97970;-66
2022/09/21 10:24:50;;;;;;;19.60;9.20;;;;;;;12.53;75.83;99245.00;106050;1275;110535;-66
2022/09/21 10:27:33;;;;;;;15.90;7.10;;;;;;;12.57;75.93;99245.71;106170;1274;97942;-66
2022/09/21 10:30:01;;;;;;;14.10;6.30;;;;;;;12.59;75.77;99250.02;106097;1274;106195;-66
2022/09/21 10:32:30;;;;;;;15.50;6.50;;;;;;;12.59;75.83;99251.61;106018;1277;98003;-66
2022/09/21 10:35:11;;;;;;;18.80;6.90;;;;;;;12.62;75.87;99251.91;106004;1274;97849;-67
2022/09/21 10:37:45;;;;;;;15.80;6.80;;;;;;;12.66;75.80;99258.55;105956;1275;112072;-65
2022/09/21 10:40:18;;;;;;;15.90;6.70;;;;;;;12.65;75.72;99258.61;106003;1274;96395;-66
2022/09/21 10:42:52;;;;;;;14.50;5.90;;;;;;;12.61;75.63;99257.34;105987;1274;107766;-69
2022/09/21 10:45:23;;;;;;;16.30;6.80;;;;;;;12.57;75.71;99260.70;106002;1275;97880;-65
2022/09/21 10:47:56;;;;;;;12.60;5.50;;;;;;;12.56;75.67;99263.95;106085;1274;98578;-65
2022/09/21 10:50:39;;;;;;;16.50;7.10;;;;;;;12.52;75.68;99266.02;106074;1274;111441;-65
2022/09/21 10:53:08;;;;;;;14.60;6.30;;;;;;;12.54;75.51;99264.80;106044;1275;97958;-67
2022/09/21 10:55:54;;;;;;;15.60;6.60;;;;;;;12.62;75.60;99261.37;106032;1277;108287;-66
2022/09/21 10:59:20;;;;;;;15.20;6.00;;;;;;;12.68;75.52;99263.41;105992;1275;95282;-66
2022/09/21 11:01:55;;;;;;;15.80;5.80;;;;;;;12.77;75.44;99261.41;106056;1275;97956;-66
2022/09/21 11:04:46;;;;;;;15.40;6.40;;;;;;;12.90;75.58;99260.95;106068;1274;111401;-65
2022/09/21 11:07:27;;;;;;;14.40;5.90;;;;;;;13.04;75.65;99255.75;106090;1274;95369;-65
2022/09/21 11:10:30;;;;;;;11.80;5.30;;;;;;;13.08;75.61;99261.46;106135;1274;108340;-66
2022/09/21 11:13:32;;;;;;;12.90;5.10;;;;;;;13.06;75.43;99257.04;106001;1276;97921;-65
2022/09/21 11:16:21;;;;;;;15.90;5.40;;;;;;;12.98;75.20;99255.85;106078;1274;97830;-66
2022/09/21 11:19:01;;;;;;;12.20;5.60;;;;;;;12.87;75.19;99251.73;106046;1275;111989;-65
2022/09/21 11:21:39;;;;;;;14.60;5.80;;;;;;;12.75;75.14;99253.55;106013;1275;95183;-65
2022/09/21 11:24:28;;;;;;;15.50;6.30;;;;;;;12.54;75.13;99253.63;105985;1275;107776;-64
2022/09/21 11:27:09;;;;;;;12.60;6.20;;;;;;;12.35;75.20;99249.95;106009;1274;98664;-65
2022/09/21 11:29:42;;;;;;;16.60;6.80;;;;;;;12.22;75.20;99250.54;106003;1274;97892;-66
2022/09/21 11:32:26;;;;;;;13.80;6.60;;;;;;;12.10;75.30;99253.05;106018;1275;112096;-65
2022/09/21 11:35:12;;;;;;;19.40;7.30;;;;;;;12.01;75.26;99250.36;106164;1274;97883;-65
2022/09/21 11:38:04;;;;;;;14.00;6.60;;;;;;;11.94;75.16;99250.15;106166;1274;107504;-64
2022/09/21 11:41:00;;;;;;;14.10;6.10;;;;;;;11.89;75.19;99242.53;106157;1274;95271;-65
2022/09/21 11:43:49;;;;;;;13.30;5.80;;;;;;;11.87;75.12;99240.90;106062;1274;97875;-65
2022/09/21 11:46:49;;;;;;;14.80;6.20;;;;;;;11.96;75.24;99237.91;106009;1274;112139;-64
2022/09/21 11:49:39;;;;;;;13.10;6.60;;;;;;;12.11;75.25;99242.13;106025;1274;97878;-64
2022/09/21 11:52:32;;;;;;;19.90;6.90;;;;;;;12.22;75.29;99237.73;106010;1274;107341;-66
2022/09/21 11:55:20;;;;;;;13.90;6.10;;;;;;;12.39;75.41;99241.23;106096;1274;97961;-66
2022/09/21 11:58:01;;;;;;;14.00;6.40;;;;;;;12.57;75.32;99243.41;106194;1274;97968;-64